Data for 02/13/2007

Time Sea-Level Adjusted Pressure Absolute Pressure Temperature Relative Humidity Dew Point   
(mb) (inHg) (mb) (inHg) (C) (F) (%) (C) (F)
00:05 1020 30.12 849 25.07 -12.7 9.1 80 -15.6 4
00:10 1020 30.12 849 25.07 -12.7 9.1 79 -15.6 3.8
00:15 1020 30.12 849 25.07 -12.8 8.9 79 -15.7 3.7
00:20 1020 30.12 849 25.07 -12.8 8.9 79 -15.8 3.6
00:25 1020 30.12 849 25.07 -12.8 8.9 79 -15.8 3.6
00:30 1020 30.12 849 25.07 -12.9 8.7 78 -15.9 3.3
00:35 1020 30.12 849 25.07 -13 8.5 77 -16.2 2.8
00:40 1020 30.12 849 25.07 -13.1 8.4 78 -16.2 2.8
00:45 1020 30.12 849 25.07 -13.1 8.4 79 -16.1 3.1
00:50 1020 30.12 849 25.07 -13 8.7 79 -15.9 3.4
00:55 1020 30.12 849 25.07 -12.9 8.8 78 -15.9 3.3
01:00 1020 30.12 849 25.07 -12.9 8.8 77 -16 3.1
01:05 1020 30.12 849 25.07 -12.9 8.8 77 -16.1 3
01:10 1020 30.12 849 25.07 -12.9 8.8 77 -16.1 3
01:15 1020 30.12 849 25.07 -12.9 8.8 77 -16.1 3
01:20 1020 30.12 849 25.07 -13 8.7 77 -16.2 2.9
01:25 1020 30.12 849 25.07 -13 8.5 77 -16.3 2.7
01:30 1020 30.12 849 25.07 -13 8.6 77 -16.2 2.9
01:35 1020 30.12 849 25.07 -13 8.6 77 -16.3 2.7
01:40 1020 30.12 849 25.07 -13 8.6 77 -16.2 2.8
01:45 1020 30.12 849 25.07 -13 8.6 76 -16.3 2.7
01:50 1020 30.12 849 25.07 -13 8.7 77 -16.1 3
01:55 1020 30.12 849 25.07 -12.9 8.8 77 -16.1 3
02:00 1020 30.12 849 25.07 -12.9 8.9 76 -16.2 2.9
02:05 1020 30.12 849 25.07 -12.8 8.9 76 -16.2 2.8
02:10 1020 30.12 849 25.07 -12.9 8.8 76 -16.2 2.8
02:15 1020 30.12 849 25.07 -12.9 8.8 76 -16.2 2.8
02:20 1020 30.12 849 25.07 -12.9 8.9 77 -16.1 3.1
02:25 1020 30.12 849 25.07 -12.8 9 77 -16 3.2
02:30 1020 30.12 849 25.07 -12.7 9.1 78 -15.7 3.7
02:35 1020 30.12 849 25.07 -12.7 9.2 78 -15.8 3.6
02:40 1020 30.12 849 25.07 -12.7 9.1 77 -15.9 3.3
02:45 1020 30.12 849 25.07 -12.7 9.1 78 -15.9 3.4
02:50 1020 30.12 849 25.07 -12.7 9.2 77 -16 3.2
02:55 1020 30.12 849 25.07 -12.7 9.1 78 -15.8 3.5
03:00 1020 30.12 849 25.07 -12.7 9.1 78 -15.8 3.6
03:05 1020 30.12 849 25.07 -12.7 9.1 78 -15.8 3.6
03:10 1020 30.12 849 25.07 -12.7 9.1 80 -15.5 4
03:15 1020 30.12 849 25.07 -12.7 9.1 80 -15.6 4
03:20 1019 30.09 849 25.07 -12.8 9 81 -15.4 4.3
03:25 1019 30.09 849 25.07 -12.7 9.1 80 -15.4 4.2
03:30 1019 30.09 849 25.07 -12.8 8.9 82 -15.3 4.4
03:35 1019 30.09 849 25.07 -12.9 8.9 82 -15.3 4.5
03:40 1019 30.09 849 25.07 -12.8 8.9 82 -15.4 4.4
03:45 1019 30.09 849 25.07 -12.8 9 82 -15.3 4.5
03:50 1019 30.09 849 25.07 -12.8 8.9 82 -15.3 4.5
03:55 1019 30.09 849 25.07 -12.9 8.9 82 -15.3 4.5
04:00 1019 30.09 849 25.07 -12.9 8.7 83 -15.3 4.4
04:05 1019 30.09 848 25.04 -13 8.6 81 -15.6 3.9
04:10 1019 30.09 848 25.04 -13.1 8.4 81 -15.8 3.6
04:15 1019 30.09 848 25.04 -13.1 8.4 81 -15.8 3.6
04:20 1019 30.09 848 25.04 -13.1 8.3 80 -16 3.3
04:25 1019 30.09 848 25.04 -13.1 8.4 79 -16 3.1
04:30 1019 30.09 848 25.04 -13.2 8.3 79 -16.1 3.1
04:35 1019 30.09 848 25.04 -13.2 8.3 78 -16.2 2.9
04:40 1019 30.09 848 25.04 -13.2 8.3 78 -16.3 2.7
04:45 1019 30.09 848 25.04 -13.2 8.3 78 -16.3 2.7
04:50 1019 30.09 848 25.04 -13.1 8.3 78 -16.2 2.8
04:55 1019 30.09 848 25.04 -13.1 8.4 77 -16.3 2.7
05:00 1019 30.09 849 25.07 -13.2 8.3 77 -16.4 2.4
05:05 1019 30.09 848 25.04 -13.3 8.1 77 -16.5 2.3
05:10 1019 30.09 849 25.07 -13.3 8 77 -16.6 2.2
05:15 1019 30.09 849 25.07 -13.4 7.9 76 -16.7 2
05:20 1019 30.09 849 25.07 -13.5 7.8 77 -16.7 1.9
05:25 1019 30.09 849 25.07 -13.6 7.5 77 -16.8 1.8
05:30 1019 30.09 849 25.07 -13.7 7.4 78 -16.7 1.9
05:35 1019 30.09 849 25.07 -13.7 7.3 79 -16.6 2.2
05:40 1019 30.09 849 25.07 -13.7 7.4 80 -16.5 2.3
05:45 1019 30.09 849 25.07 -13.7 7.4 77 -16.9 1.6
05:50 1019 30.09 849 25.07 -13.8 7.2 77 -17 1.4
05:55 1019 30.09 849 25.07 -13.8 7.3 77 -17 1.5
06:00 1019 30.09 849 25.07 -13.8 7.1 77 -17.1 1.3
06:05 1019 30.09 849 25.07 -14 6.8 77 -17.3 0.9
06:10 1019 30.09 849 25.07 -14.2 6.5 77 -17.3 0.8
06:15 1019 30.09 849 25.07 -14.2 6.4 77 -17.4 0.7
06:20 1019 30.09 849 25.07 -14.2 6.4 77 -17.5 0.5
06:25 1019 30.09 849 25.07 -14.3 6.3 77 -17.5 0.5
06:30 1019 30.09 849 25.07 -14.2 6.4 77 -17.4 0.6
06:35 1019 30.09 849 25.07 -14.2 6.5 77 -17.3 0.8
06:40 1019 30.09 849 25.07 -14.1 6.6 77 -17.3 0.9
06:45 1019 30.09 849 25.07 -14.1 6.6 77 -17.3 0.9
06:50 1019 30.09 849 25.07 -14.1 6.6 77 -17.3 0.9
06:55 1019 30.09 849 25.07 -14.2 6.4 78 -17.3 0.9
07:00 1019 30.09 849 25.07 -14.2 6.4 77 -17.3 0.8
07:05 1019 30.09 849 25.07 -14.2 6.5 77 -17.3 0.8
07:10 1019 30.09 849 25.07 -14.1 6.5 78 -17.3 0.9
07:15 1019 30.09 849 25.07 -14.1 6.6 78 -17.2 1.1
07:20 1019 30.09 849 25.07 -14 6.8 77 -17.2 1.1
07:25 1019 30.09 849 25.07 -13.9 7 77 -17.1 1.3
07:30 1020 30.12 849 25.07 -13.8 7.1 77 -17 1.5
07:35 1020 30.12 849 25.07 -13.8 7.2 78 -16.9 1.6
07:40 1020 30.12 849 25.07 -13.8 7.2 78 -16.8 1.8
07:45 1020 30.12 849 25.07 -13.7 7.3 79 -16.6 2.1
07:50 1020 30.12 849 25.07 -13.6 7.4 79 -16.6 2.1
07:55 1020 30.12 849 25.07 -13.7 7.4 80 -16.5 2.4
08:00 1020 30.12 849 25.07 -13.6 7.5 79 -16.5 2.4
08:05 1020 30.12 849 25.07 -13.6 7.6 80 -16.3 2.7
08:10 1020 30.12 849 25.07 -13.6 7.6 80 -16.4 2.6
08:15 1020 30.12 849 25.07 -13.6 7.6 80 -16.3 2.6
08:20 1020 30.12 849 25.07 -13.4 7.8 80 -16.1 3
08:25 1020 30.12 849 25.07 -13.2 8.3 79 -16.1 3.1
08:30 1020 30.12 849 25.07 -13.1 8.4 79 -16 3.3
08:35 1020 30.12 849 25.07 -13 8.7 79 -15.9 3.4
08:40 1020 30.12 849 25.07 -12.8 8.9 77 -16 3.2
08:45 1020 30.12 849 25.07 -12.8 8.9 78 -16 3.3
08:50 1020 30.12 849 25.07 -12.7 9.2 78 -15.7 3.7
08:55 1020 30.12 849 25.07 -12.5 9.4 79 -15.5 4.1
09:00 1020 30.12 849 25.07 -12.3 9.8 78 -15.5 4.2
09:05 1020 30.12 849 25.07 -12.2 10 78 -15.3 4.5
09:10 1020 30.12 849 25.07 -12.2 10 79 -15.2 4.6
09:15 1020 30.12 849 25.07 -12.1 10.2 79 -15.1 4.8
09:20 1020 30.12 849 25.07 -12.2 10.1 80 -15 5
09:25 1020 30.12 849 25.07 -12 10.4 79 -14.9 5.2
09:30 1020 30.12 849 25.07 -11.8 10.8 79 -14.7 5.5
09:35 1020 30.12 849 25.07 -11.3 11.6 78 -14.4 6.1
09:40 1020 30.12 849 25.07 -10.7 12.8 75 -14.2 6.4
09:45 1020 30.12 849 25.07 -9.9 14.3 70 -14.3 6.2
09:50 1020 30.12 849 25.07 -10.1 13.8 73 -14.1 6.7
09:55 1020 30.12 849 25.07 -9.8 14.4 71 -14.1 6.7
10:00 1020 30.12 849 25.07 -9.7 14.5 71 -14 6.7
10:05 1020 30.12 849 25.07 -9.3 15.3 67 -14.3 6.2
10:10 1020 30.12 849 25.07 -9.4 15.1 70 -13.9 7
10:15 1020 30.12 849 25.07 -9.7 14.5 71 -14 6.8
10:20 1020 30.12 849 25.07 -9.4 15.1 71 -13.8 7.2
10:25 1020 30.12 849 25.07 -9.2 15.4 68 -14 6.8
10:30 1020 30.12 849 25.07 -9.2 15.4 72 -13.4 7.8
10:35 1020 30.12 849 25.07 -9 15.9 68 -13.8 7.2
10:40 1020 30.12 849 25.07 -9.1 15.7 67 -14 6.7
10:45 1020 30.12 849 25.07 -9.6 14.7 73 -13.6 7.6
10:50 1020 30.12 849 25.07 -9.7 14.5 75 -13.4 7.8
10:55 1020 30.12 849 25.07 -8.9 16 70 -13.4 7.9
11:00 1020 30.12 849 25.07 -9 15.7 72 -13.2 8.2
11:05 1020 30.12 849 25.07 -8.7 16.4 70 -13.2 8.3
11:10 1020 30.12 849 25.07 -8.7 16.3 72 -12.9 8.7
11:15 1020 30.12 849 25.07 -8.7 16.3 73 -12.7 9.1
11:20 1020 30.12 849 25.07 -8.2 17.2 70 -12.8 9
11:25 1020 30.12 849 25.07 -8.9 16.1 73 -12.9 8.8
11:30 1020 30.12 849 25.07 -9.2 15.4 75 -13 8.7
11:35 1020 30.12 849 25.07 -9.4 15.1 76 -12.9 8.8
11:40 1020 30.12 849 25.07 -9.4 15.2 76 -12.8 8.9
11:45 1020 30.12 849 25.07 -9.2 15.4 74 -13 8.7
11:50 1020 30.12 849 25.07 -8.7 16.3 73 -12.7 9.1
11:55 1020 30.12 849 25.07 -8.5 16.8 73 -12.4 9.7
12:00 1020 30.12 849 25.07 -7.7 18.2 70 -12.2 10.1
12:05 1020 30.12 849 25.07 -7.1 19.3 68 -12 10.5
12:10 1020 30.12 849 25.07 -7.1 19.3 70 -11.7 11
12:15 1020 30.12 849 25.07 -7.9 17.9 72 -12 10.4
12:20 1020 30.12 849 25.07 -7.6 18.3 69 -12.4 9.7
12:25 1019 30.09 849 25.07 -6.7 19.9 67 -11.8 10.7
12:30 1019 30.09 849 25.07 -7.3 18.8 71 -11.7 10.9
12:35 1019 30.09 849 25.07 -7.5 18.4 69 -12.2 10
12:40 1019 30.09 849 25.07 -7 19.4 68 -11.9 10.6
12:45 1019 30.09 849 25.07 -7 19.4 67 -12.1 10.3
12:50 1019 30.09 849 25.07 -8.6 16.5 76 -12.1 10.2
12:55 1019 30.09 849 25.07 -8.8 16.2 77 -12.2 10.1
13:00 1019 30.09 849 25.07 -7.4 18.8 70 -12 10.5
13:05 1019 30.09 849 25.07 -6.7 19.9 69 -11.5 11.3
13:10 1019 30.09 848 25.04 -7.2 19 70 -11.9 10.7
13:15 1019 30.09 848 25.04 -7.2 19.1 70 -11.8 10.7
13:20 1019 30.09 848 25.04 -6.8 19.8 68 -11.7 11
13:25 1019 30.09 849 25.07 -6.8 19.8 66 -12.1 10.3
13:30 1019 30.09 849 25.07 -6.7 19.9 68 -11.7 11
13:35 1019 30.09 849 25.07 -6.7 20 66 -12 10.5
13:40 1019 30.09 848 25.04 -6.7 19.9 66 -12.1 10.3
13:45 1019 30.09 848 25.04 -6.8 19.7 67 -12 10.4
13:50 1019 30.09 848 25.04 -7.1 19.3 68 -12.1 10.3
13:55 1019 30.09 848 25.04 -7.3 18.8 71 -11.8 10.8
14:00 1019 30.09 848 25.04 -7.2 19.1 67 -12.3 9.8
14:05 1019 30.09 848 25.04 -7 19.3 67 -12.2 10
14:10 1019 30.09 848 25.04 -7.7 18.2 72 -11.9 10.5
14:15 1019 30.09 848 25.04 -8 17.5 72 -12.2 10.1
14:20 1019 30.09 848 25.04 -8.1 17.3 73 -12.2 10.1
14:25 1019 30.09 848 25.04 -8.4 16.9 73 -12.3 9.8
14:30 1019 30.09 848 25.04 -8.6 16.6 75 -12.3 9.9
14:35 1019 30.09 848 25.04 -8.5 16.8 75 -12.2 10
14:40 1019 30.09 848 25.04 -8 17.5 73 -12 10.4
14:45 1019 30.09 848 25.04 -7.9 17.8 71 -12.3 9.8
14:50 1019 30.09 848 25.04 -8 17.5 72 -12.3 9.9
14:55 1019 30.09 848 25.04 -7.8 17.9 71 -12.2 10.1
15:00 1019 30.09 848 25.04 -7.7 18.2 70 -12.2 10
15:05 1019 30.09 848 25.04 -7.7 18.1 71 -12.1 10.2
15:10 1019 30.09 848 25.04 -8 17.6 73 -12 10.5
15:15 1019 30.09 848 25.04 -8.1 17.5 73 -12.1 10.2
15:20 1019 30.09 848 25.04 -8 17.7 72 -12.1 10.2
15:25 1019 30.09 848 25.04 -7.9 17.7 74 -11.9 10.7
15:30 1019 30.09 848 25.04 -7.8 17.9 74 -11.7 11
15:35 1019 30.09 848 25.04 -7.3 18.9 70 -11.9 10.5
15:40 1019 30.09 848 25.04 -7.2 19.1 70 -11.8 10.7
15:45 1019 30.09 848 25.04 -6.9 19.5 71 -11.3 11.7
15:50 1019 30.09 848 25.04 -6.7 19.9 71 -11.2 11.8
15:55 1019 30.09 848 25.04 -7 19.5 72 -11.3 11.7
16:00 1019 30.09 848 25.04 -7.2 19 72 -11.5 11.2
16:05 1019 30.09 848 25.04 -7.3 18.8 72 -11.6 11.1
16:10 1019 30.09 848 25.04 -7.4 18.7 73 -11.5 11.3
16:15 1019 30.09 848 25.04 -7.5 18.6 74 -11.4 11.5
16:20 1019 30.09 848 25.04 -7.2 19 72 -11.5 11.4
16:25 1019 30.09 848 25.04 -7.1 19.2 72 -11.4 11.6
16:30 1019 30.09 848 25.04 -7.4 18.7 73 -11.5 11.3
16:35 1019 30.09 848 25.04 -7.4 18.7 73 -11.4 11.5
16:40 1019 30.09 848 25.04 -7.4 18.8 74 -11.3 11.7
16:45 1019 30.09 848 25.04 -7.3 18.8 73 -11.3 11.6
16:50 1019 30.09 848 25.04 -7.8 18 76 -11.3 11.6
16:55 1019 30.09 848 25.04 -8.3 17 78 -11.4 11.4
17:00 1019 30.09 849 25.07 -8.2 17.2 80 -11.1 12
17:05 1019 30.09 849 25.07 -7.7 18.2 77 -11.1 12.1
17:10 1019 30.09 849 25.07 -7.7 18.2 76 -11.2 11.8
17:15 1019 30.09 848 25.04 -8 17.6 77 -11.3 11.6
17:20 1019 30.09 848 25.04 -8.1 17.5 78 -11.3 11.7
17:25 1019 30.09 848 25.04 -8.1 17.5 79 -11.1 12
17:30 1019 30.09 848 25.04 -8 17.7 78 -11.2 11.8
17:35 1019 30.09 848 25.04 -8.1 17.5 79 -11.1 12.1
17:40 1019 30.09 848 25.04 -8.1 17.3 78 -11.3 11.7
17:45 1019 30.09 848 25.04 -8.3 17 78 -11.4 11.4
17:50 1019 30.09 848 25.04 -8.1 17.3 78 -11.3 11.7
17:55 1019 30.09 848 25.04 -8.2 17.2 80 -11.1 12
18:00 1019 30.09 848 25.04 -8.2 17.2 80 -11.1 12
18:05 1019 30.09 848 25.04 -8.4 17 81 -11.1 12
18:10 1019 30.09 848 25.04 -8.4 16.9 82 -11 12.2
18:15 1019 30.09 849 25.07 -8.4 16.9 82 -10.9 12.3
18:20 1019 30.09 849 25.07 -8.4 17 82 -10.9 12.4
18:25 1019 30.09 849 25.07 -8.3 17.1 84 -10.5 13
18:30 1019 30.09 849 25.07 -8.2 17.3 83 -10.5 13.1
18:35 1019 30.09 849 25.07 -8.1 17.4 84 -10.3 13.4
18:40 1019 30.09 849 25.07 -8.2 17.3 84 -10.5 13.1
18:45 1019 30.09 849 25.07 -8.3 17.1 84 -10.5 13.1
18:50 1019 30.09 849 25.07 -8.2 17.2 84 -10.4 13.3
18:55 1019 30.09 848 25.04 -8.3 17.1 85 -10.5 13.2
19:00 1019 30.09 848 25.04 -8.4 16.8 85 -10.6 12.9
19:05 1019 30.09 848 25.04 -8.3 17 84 -10.6 13
19:10 1019 30.09 848 25.04 -8.3 17.1 84 -10.5 13
19:15 1019 30.09 848 25.04 -8.4 16.9 84 -10.6 12.9
19:20 1019 30.09 848 25.04 -8.4 17 84 -10.6 12.9
19:25 1019 30.09 848 25.04 -8.2 17.2 83 -10.6 12.9
19:30 1019 30.09 848 25.04 -8.3 17 84 -10.6 12.9
19:35 1019 30.09 848 25.04 -8.5 16.8 84 -10.6 12.9
19:40 1019 30.09 848 25.04 -8.4 17 84 -10.7 12.8
19:45 1019 30.09 848 25.04 -8.1 17.5 84 -10.3 13.5
19:50 1019 30.09 848 25.04 -7.9 17.9 83 -10.3 13.4
19:55 1019 30.09 848 25.04 -7.9 17.9 82 -10.4 13.3
20:00 1019 30.09 848 25.04 -7.9 17.7 82 -10.5 13.1
20:05 1019 30.09 848 25.04 -8 17.6 81 -10.7 12.7
20:10 1019 30.09 848 25.04 -8.2 17.3 83 -10.6 12.9
20:15 1019 30.09 848 25.04 -8.1 17.4 82 -10.7 12.8
20:20 1019 30.09 848 25.04 -7.8 17.9 82 -10.3 13.5
20:25 1019 30.09 848 25.04 -7.6 18.3 81 -10.3 13.5
20:30 1019 30.09 848 25.04 -7.5 18.4 82 -10.2 13.7
20:35 1019 30.09 848 25.04 -7.4 18.7 82 -10 14
20:40 1019 30.09 848 25.04 -7.3 18.9 81 -9.9 14.1
20:45 1019 30.09 848 25.04 -7.2 19 81 -9.9 14.2
20:50 1019 30.09 848 25.04 -7.3 18.9 81 -10 14.1
20:55 1019 30.09 848 25.04 -7.6 18.3 81 -10.3 13.5
21:00 1019 30.09 848 25.04 -8.3 17 84 -10.6 12.9
21:05 1019 30.09 848 25.04 -8.5 16.6 84 -10.8 12.6
21:10 1019 30.09 848 25.04 -8.7 16.4 86 -10.7 12.8
21:15 1019 30.09 848 25.04 -8.5 16.7 85 -10.6 12.9
21:20 1019 30.09 848 25.04 -8.3 17 84 -10.6 12.9
21:25 1019 30.09 848 25.04 -8.7 16.3 84 -10.9 12.4
21:30 1019 30.09 848 25.04 -8.8 16.1 85 -10.9 12.3
21:35 1019 30.09 848 25.04 -8.8 16.2 84 -11 12.2
21:40 1019 30.09 848 25.04 -8.8 16.1 84 -11 12.2
21:45 1019 30.09 848 25.04 -8.7 16.3 85 -10.9 12.4
21:50 1019 30.09 848 25.04 -8.6 16.5 84 -10.8 12.6
21:55 1019 30.09 848 25.04 -8.6 16.6 84 -10.8 12.6
22:00 1019 30.09 849 25.07 -8.5 16.7 85 -10.6 13
22:05 1019 30.09 849 25.07 -8.3 17.1 85 -10.4 13.3
22:10 1019 30.09 848 25.04 -8.2 17.3 84 -10.4 13.3
22:15 1019 30.09 849 25.07 -8.1 17.4 84 -10.3 13.4
22:20 1019 30.09 849 25.07 -8 17.6 85 -10.1 13.8
22:25 1019 30.09 849 25.07 -7.9 17.8 84 -10.1 13.8
22:30 1019 30.09 849 25.07 -8 17.7 85 -10 13.9
22:35 1019 30.09 849 25.07 -8.1 17.4 86 -10 14
22:40 1019 30.09 849 25.07 -8.2 17.2 87 -10 14
22:45 1019 30.09 848 25.04 -8.3 17 87 -10.2 13.7
22:50 1019 30.09 848 25.04 -8.6 16.6 87 -10.4 13.3
22:55 1019 30.09 848 25.04 -8.7 16.3 89 -10.3 13.5
23:00 1019 30.09 848 25.04 -8.7 16.4 87 -10.4 13.3
23:05 1019 30.09 848 25.04 -8.9 15.9 89 -10.5 13.1
23:10 1019 30.09 848 25.04 -9 15.8 89 -10.5 13.1
23:15 1019 30.09 848 25.04 -8.8 16.2 89 -10.3 13.4
23:20 1019 30.09 848 25.04 -8.6 16.5 88 -10.2 13.6
23:25 1019 30.09 848 25.04 -8.5 16.7 87 -10.3 13.4
23:30 1019 30.09 848 25.04 -8.5 16.7 87 -10.2 13.6
23:35 1019 30.09 848 25.04 -8.5 16.6 88 -10.2 13.7
23:40 1019 30.09 848 25.04 -8.6 16.6 88 -10.2 13.7
23:45 1019 30.09 848 25.04 -8.7 16.4 89 -10.2 13.6
23:50 1019 30.09 848 25.04 -8.7 16.3 90 -10.1 13.8
23:55 1019 30.09 848 25.04 -8.5 16.7 88 -10.1 13.8
24:00 1019 30.09 848 25.04 -8.4 17 88 -10 14.1